Scio, OR (97374)

5:35 AM PST on January 27, 2015 (GMT -0800)
Shimanek Bridge, Scio | Change Station
CLOSE
Current Station
Personal Weather Station
Location: Scio, OR
Elevation: 364 ft
Nearby Weather Stations
Active Advisory: Dense Fog Advisory

Elev 364 ft 44.71 °N, 122.81 °W | Updated 8 seconds ago

Fog
Fog
40.3 °F
Feels Like 40 °F
N
0.0
Wind Variable Wind from East
Gusts 0.0 mph

Today
High -- | Low -- °F
--% Chance of Precip.
Yesterday
High -- | Low -- °F
Precip. -- in
7:35 AM 5:12 PM
First Quarter, 54% visible
Pressure 30.03 in
Visibility 1.8 miles
Clouds Overcast 300 ft
Windchill 40 °F
Dew Point 40 °F
Humidity 99%
Rainfall 0.00 in
Snow Depth Not available.
UV 0.0 out of 12
Pollen 2.90 out of 12
Air Quality Not available.
Flu Activity Not available.
SPECI KSLE 271330Z AUTO 00000KT 1 3/4SM BR OVC003 06/06 A3003 RMK AO2 T00610056

More Conditions Fewer Conditions

Pressure 30.03 in
Visibility 1.8 miles
Clouds Overcast 300 ft
Windchill 40 °F
Dew Point 40 °F
Humidity 99%
Rainfall 0.00 in
Snow Depth Not available.
UV 0.0 out of 12
Pollen 2.90 out of 12
Air Quality Not available.
Flu Activity Not available.
SPECI KSLE 271330Z AUTO 00000KT 1 3/4SM BR OVC003 06/06 A3003 RMK AO2 T00610056

More Conditions Fewer Conditions

10-Day Weather Forecast

Almanac

Astronomy

Jan. 27, 2015 Rise Set
Actual Time
Civil Twilight
Nautical Twilight
Astronomical Twilight
Moon
Length of Visible Light
Length of Day
Tomorrow will be .
, % of the Moon is Illuminated

Today's Extremes

State Highs State Lows

Community

WunderPhotos

Upload Photos

1,790,614 photos uploaded!

WunderBlogs® & News

Nearby

Air Quality

  Air Quality AQ Index Pollutant
Not available.

Snow Depth

Station Depth Elevation

Earthquake Activity

City Distance Mag. Time & Date
Minimum magnitude displayed is 2.5.

Coastal Water Temperatures

Place Temperature

Nearby Weather Stations